createdAt,value
2019-02-05T00:01:43.635Z,2.10
2019-02-05T00:04:14.128Z,2.10
2019-02-05T00:06:44.586Z,2.10
2019-02-05T00:09:15.212Z,2.00
2019-02-05T00:11:45.677Z,2.00
2019-02-05T00:14:16.239Z,2.00
2019-02-05T00:16:46.733Z,2.00
2019-02-05T00:19:17.257Z,2.00
2019-02-05T00:21:47.748Z,1.90
2019-02-05T00:24:18.241Z,1.90
2019-02-05T00:26:48.734Z,1.90
2019-02-05T00:29:19.812Z,1.90
2019-02-05T00:31:50.295Z,1.90
2019-02-05T00:34:20.769Z,1.90
2019-02-05T00:36:51.259Z,1.90
2019-02-05T00:39:21.744Z,1.90
2019-02-05T00:41:52.206Z,1.90
2019-02-05T00:44:22.711Z,2.00
2019-02-05T00:46:53.168Z,2.00
2019-02-05T00:49:23.655Z,1.90
2019-02-05T00:51:54.122Z,1.90
2019-02-05T00:54:26.379Z,1.90
2019-02-05T00:56:56.843Z,1.90
2019-02-05T00:59:27.326Z,2.00
2019-02-05T01:01:57.847Z,2.00
2019-02-05T01:04:28.430Z,2.00
2019-02-05T01:06:58.959Z,2.00
2019-02-05T01:09:29.916Z,2.00
2019-02-05T01:12:00.482Z,2.00
2019-02-05T01:14:30.939Z,2.00
2019-02-05T01:17:01.444Z,2.00
2019-02-05T01:19:31.929Z,2.00
2019-02-05T01:22:02.451Z,2.00
2019-02-05T01:24:32.939Z,2.00
2019-02-05T01:27:03.422Z,2.00
2019-02-05T01:29:33.888Z,2.00
2019-02-05T01:32:05.905Z,2.00
2019-02-05T01:34:36.370Z,2.00
2019-02-05T01:37:06.875Z,2.00
2019-02-05T01:39:37.332Z,1.90
2019-02-05T01:42:07.813Z,1.90
2019-02-05T01:44:38.278Z,1.90
2019-02-05T01:47:08.762Z,1.90
2019-02-05T01:49:39.613Z,1.80
2019-02-05T01:52:11.025Z,1.90
2019-02-05T01:54:41.497Z,1.90
2019-02-05T01:57:12.002Z,1.90
2019-02-05T01:59:42.466Z,1.90
2019-02-05T02:02:13.399Z,1.90
2019-02-05T02:04:43.878Z,1.90
2019-02-05T02:07:14.530Z,1.90
2019-02-05T02:09:45.003Z,1.90
2019-02-05T02:12:15.458Z,1.90
2019-02-05T02:14:46.017Z,1.90
2019-02-05T02:17:16.649Z,1.90
2019-02-05T02:19:47.139Z,1.90
2019-02-05T02:22:17.667Z,1.90
2019-02-05T02:24:48.323Z,1.80
2019-02-05T02:27:18.804Z,1.90
2019-02-05T02:29:49.875Z,1.90
2019-02-05T02:32:20.307Z,1.90
2019-02-05T02:34:50.797Z,1.90
2019-02-05T02:37:21.283Z,1.90
2019-02-05T02:39:51.743Z,1.90
2019-02-05T02:42:22.224Z,1.90
2019-02-05T02:44:52.690Z,1.90
2019-02-05T02:47:23.192Z,1.90
2019-02-05T02:49:53.647Z,1.90
2019-02-05T02:52:24.130Z,1.80
2019-02-05T02:54:54.668Z,1.80
2019-02-05T02:57:25.533Z,1.80
2019-02-05T02:59:56.068Z,1.80
2019-02-05T03:02:26.560Z,1.80
2019-02-05T03:04:57.097Z,1.80
2019-02-05T03:07:27.582Z,1.70
2019-02-05T03:09:58.050Z,1.70
2019-02-05T03:12:28.905Z,1.70
2019-02-05T03:14:59.367Z,1.70
2019-02-05T03:17:29.934Z,1.70
2019-02-05T03:20:01.545Z,1.60
2019-02-05T03:22:32.858Z,1.60
2019-02-05T03:25:04.481Z,1.70
2019-02-05T03:27:35.195Z,1.70
2019-02-05T03:30:13.401Z,1.60
2019-02-05T03:32:44.044Z,1.60
2019-02-05T03:35:15.434Z,1.60
2019-02-05T03:37:45.992Z,1.60
2019-02-05T03:40:33.769Z,1.60
2019-02-05T03:43:04.295Z,1.60
2019-02-05T03:45:34.927Z,1.60
2019-02-05T03:48:06.522Z,1.60
2019-02-05T03:50:49.398Z,1.60
2019-02-05T03:53:32.965Z,1.60
2019-02-05T03:56:29.225Z,1.60
2019-02-05T03:59:19.304Z,1.60
2019-02-05T04:02:15.463Z,1.60
2019-02-05T04:05:26.398Z,1.60
2019-02-05T04:08:24.181Z,1.50
2019-02-05T04:11:08.041Z,1.50
2019-02-05T04:14:06.551Z,1.50
2019-02-05T04:17:04.248Z,1.50
2019-02-05T04:20:22.084Z,1.50
2019-02-05T04:23:23.710Z,1.50
2019-02-05T04:26:24.282Z,1.60
2019-02-05T04:29:18.859Z,1.60
2019-02-05T04:32:25.809Z,1.60
2019-02-05T04:35:36.002Z,1.60
2019-02-05T04:38:22.969Z,1.50
2019-02-05T04:41:27.914Z,1.50
2019-02-05T04:44:47.192Z,1.50
2019-02-05T04:47:34.252Z,1.40
2019-02-05T04:50:15.335Z,1.50
2019-02-05T04:53:12.941Z,1.50
2019-02-05T04:56:00.091Z,1.50
2019-02-05T04:58:43.947Z,1.50
2019-02-05T05:01:46.273Z,1.50
2019-02-05T05:04:38.648Z,1.50
2019-02-05T05:07:28.531Z,1.50
2019-02-05T05:09:59.460Z,1.60
2019-02-05T05:12:30.059Z,1.50
2019-02-05T05:15:00.735Z,1.50
2019-02-05T05:17:31.255Z,1.50
2019-02-05T05:20:01.731Z,1.50
2019-02-05T05:22:32.293Z,1.50
2019-02-05T05:25:02.923Z,1.50
2019-02-05T05:27:33.540Z,1.50
2019-02-05T05:30:08.645Z,1.60
2019-02-05T05:32:39.142Z,1.60
2019-02-05T05:35:10.840Z,1.60
2019-02-05T05:37:41.297Z,1.70
2019-02-05T05:40:12.398Z,1.70
2019-02-05T05:42:42.903Z,1.70
2019-02-05T05:45:14.894Z,1.80
2019-02-05T05:47:45.460Z,1.80
2019-02-05T05:50:16.572Z,1.70
2019-02-05T05:52:47.074Z,1.70
2019-02-05T05:55:17.536Z,1.60
2019-02-05T05:57:48.018Z,1.60
2019-02-05T06:00:20.455Z,1.60
2019-02-05T06:02:51.608Z,1.60
2019-02-05T06:05:22.509Z,1.60
2019-02-05T06:07:53.471Z,1.70
2019-02-05T06:10:23.983Z,1.70
2019-02-05T06:12:54.427Z,1.70
2019-02-05T06:15:24.914Z,1.60
2019-02-05T06:17:55.412Z,1.50
2019-02-05T06:20:25.951Z,1.50
2019-02-05T06:22:56.502Z,1.40
2019-02-05T06:25:27.036Z,1.40
2019-02-05T06:27:57.523Z,1.40
2019-02-05T06:30:27.985Z,1.30
2019-02-05T06:32:58.531Z,1.30
2019-02-05T06:35:29.130Z,1.40
2019-02-05T06:37:59.639Z,1.30
2019-02-05T06:40:31.268Z,1.20
2019-02-05T06:43:01.845Z,1.20
2019-02-05T06:45:32.480Z,1.10
2019-02-05T06:48:03.018Z,1.10
2019-02-05T06:50:35.448Z,1.00
2019-02-05T06:53:05.973Z,0.90
2019-02-05T06:55:36.490Z,0.80
2019-02-05T06:58:07.162Z,0.80
2019-02-05T07:00:37.645Z,0.80
2019-02-05T07:03:08.492Z,0.80
2019-02-05T07:05:39.355Z,0.80
2019-02-05T07:08:09.895Z,0.80
2019-02-05T07:10:40.365Z,0.80
2019-02-05T07:13:10.905Z,0.80
2019-02-05T07:15:41.395Z,0.90
2019-02-05T07:18:12.970Z,0.90
2019-02-05T07:20:44.585Z,0.80
2019-02-05T07:23:15.071Z,0.90
2019-02-05T07:25:45.562Z,0.80
2019-02-05T07:28:16.018Z,0.80
2019-02-05T07:30:46.524Z,0.80
2019-02-05T07:33:17.431Z,0.80
2019-02-05T07:35:47.928Z,0.80
2019-02-05T07:38:18.397Z,0.80
2019-02-05T07:40:48.940Z,0.80
2019-02-05T07:43:19.503Z,0.90
2019-02-05T07:45:51.362Z,0.90
2019-02-05T07:48:21.822Z,0.90
2019-02-05T07:50:53.961Z,1.00
2019-02-05T07:53:24.446Z,1.00
2019-02-05T07:55:54.939Z,1.00
2019-02-05T07:58:25.424Z,1.00
2019-02-05T08:00:56.025Z,1.00
2019-02-05T08:03:26.503Z,1.10
2019-02-05T08:05:57.257Z,1.20
2019-02-05T08:08:27.790Z,1.30
2019-02-05T08:10:58.288Z,1.30
2019-02-05T08:13:28.821Z,1.50
2019-02-05T08:16:00.248Z,1.60
2019-02-05T08:18:30.810Z,1.70
2019-02-05T08:21:01.304Z,1.80
2019-02-05T08:23:31.770Z,2.00
2019-02-05T08:26:02.253Z,2.10
2019-02-05T08:28:40.592Z,2.30
2019-02-05T08:31:04.960Z,2.40
2019-02-05T08:33:35.418Z,2.50
2019-02-05T08:36:06.423Z,2.70
2019-02-05T08:38:36.872Z,2.80
2019-02-05T08:41:07.781Z,2.90
2019-02-05T08:43:38.280Z,3.00
2019-02-05T08:46:08.736Z,3.10
2019-02-05T08:48:39.224Z,3.30
2019-02-05T08:51:10.056Z,3.40
2019-02-05T08:53:40.564Z,3.50
2019-02-05T08:56:11.182Z,3.70
2019-02-05T08:58:41.674Z,3.70
2019-02-05T09:01:14.480Z,3.80
2019-02-05T09:03:44.563Z,3.80
2019-02-05T09:06:17.160Z,3.90
2019-02-05T09:08:47.638Z,4.00
2019-02-05T09:11:18.093Z,4.10
2019-02-05T09:13:48.580Z,4.10
2019-02-05T09:16:19.087Z,4.30
2019-02-05T09:18:49.550Z,4.50
2019-02-05T09:21:20.313Z,4.60
2019-02-05T09:23:50.959Z,4.60
2019-02-05T09:26:21.393Z,4.70
2019-02-05T09:28:52.565Z,4.80
2019-02-05T09:31:24.102Z,4.90
2019-02-05T09:33:54.680Z,5.20
2019-02-05T09:36:25.217Z,5.50
2019-02-05T09:38:55.729Z,5.70
2019-02-05T09:41:26.220Z,6.00
2019-02-05T09:43:56.761Z,6.10
2019-02-05T09:46:28.270Z,6.30
2019-02-05T09:48:58.754Z,6.50
2019-02-05T09:51:29.232Z,6.80
2019-02-05T09:53:59.731Z,7.10
2019-02-05T09:56:30.232Z,7.20
2019-02-05T09:59:00.698Z,7.50
2019-02-05T10:01:36.227Z,7.60
2019-02-05T10:04:07.018Z,8.00
2019-02-05T10:06:37.567Z,8.20
2019-02-05T10:09:09.192Z,8.10
2019-02-05T10:11:39.725Z,8.40
2019-02-05T10:14:10.217Z,8.60
2019-02-05T10:16:40.717Z,8.60
2019-02-05T10:19:11.693Z,8.70
2019-02-05T10:21:42.221Z,8.70
2019-02-05T10:24:12.854Z,8.90
2019-02-05T10:26:43.379Z,9.10
2019-02-05T10:29:13.860Z,9.10
2019-02-05T10:31:44.317Z,8.80
2019-02-05T10:34:15.189Z,8.50
2019-02-05T10:36:45.835Z,8.50
2019-02-05T10:39:16.513Z,8.50
2019-02-05T10:41:47.249Z,8.70
2019-02-05T10:44:17.710Z,8.80
2019-02-05T10:46:48.277Z,8.90
2019-02-05T10:49:18.925Z,9.00
2019-02-05T10:51:49.403Z,9.10
2019-02-05T10:54:19.877Z,9.20
2019-02-05T10:56:50.370Z,9.30
2019-02-05T10:59:20.834Z,9.20
2019-02-05T11:01:52.080Z,9.20
2019-02-05T11:04:22.542Z,9.20
2019-02-05T11:06:53.102Z,9.20
2019-02-05T11:09:23.631Z,9.20
2019-02-05T11:11:54.136Z,9.20
2019-02-05T11:14:24.723Z,9.40
2019-02-05T11:16:55.190Z,9.50
2019-02-05T11:19:25.698Z,9.00
2019-02-05T11:21:56.155Z,8.90
2019-02-05T11:24:26.637Z,8.70
2019-02-05T11:26:57.130Z,8.60
2019-02-05T11:29:27.608Z,9.00
2019-02-05T11:31:58.159Z,9.50
2019-02-05T11:34:30.270Z,9.90
2019-02-05T11:37:00.761Z,10.10
2019-02-05T11:39:31.230Z,10.20
2019-02-05T11:42:01.722Z,10.60
2019-02-05T11:44:33.465Z,11.10
2019-02-05T11:47:04.886Z,11.60
2019-02-05T11:49:35.360Z,11.90
2019-02-05T11:52:09.746Z,11.90
2019-02-05T11:54:39.775Z,12.20
2019-02-05T11:57:10.342Z,12.40
2019-02-05T11:59:40.817Z,12.30
2019-02-05T12:02:11.741Z,12.20
2019-02-05T12:04:42.235Z,12.10
2019-02-05T12:07:12.758Z,12.00
2019-02-05T12:09:43.363Z,11.60
2019-02-05T12:12:14.771Z,11.40
2019-02-05T12:14:45.252Z,11.50
2019-02-05T12:17:16.287Z,11.30
2019-02-05T12:19:46.834Z,10.90
2019-02-05T12:22:17.835Z,10.90
2019-02-05T12:24:48.322Z,10.60
2019-02-05T12:27:20.313Z,10.30
2019-02-05T12:29:50.887Z,10.40
2019-02-05T12:32:23.158Z,10.50
2019-02-05T12:34:53.627Z,10.40
2019-02-05T12:37:24.210Z,10.40
2019-02-05T12:39:54.682Z,10.60
2019-02-05T12:42:25.251Z,10.70
2019-02-05T12:44:57.379Z,10.60
2019-02-05T12:47:27.927Z,10.70
2019-02-05T12:49:58.428Z,10.80
2019-02-05T12:52:28.896Z,10.90
2019-02-05T12:55:12.803Z,10.70
2019-02-05T12:57:31.642Z,10.80
2019-02-05T13:00:02.501Z,10.90
2019-02-05T13:02:33.052Z,11.00
2019-02-05T13:05:07.760Z,11.00
2019-02-05T13:07:38.241Z,11.30
2019-02-05T13:10:22.576Z,11.50
2019-02-05T13:12:53.207Z,11.60
2019-02-05T13:15:23.814Z,11.80
2019-02-05T13:17:54.323Z,12.00
2019-02-05T13:20:32.007Z,11.80
2019-02-05T13:23:04.584Z,11.70
2019-02-05T13:25:36.507Z,11.70
2019-02-05T13:28:09.786Z,11.70
2019-02-05T13:30:40.511Z,11.80
2019-02-05T13:33:13.796Z,12.10
2019-02-05T13:35:44.547Z,12.10
2019-02-05T13:38:15.116Z,12.10
2019-02-05T13:40:45.648Z,12.20
2019-02-05T13:43:16.306Z,12.30
2019-02-05T13:45:47.724Z,12.30
2019-02-05T13:48:18.231Z,12.10
2019-02-05T13:50:48.771Z,12.00
2019-02-05T13:53:19.288Z,11.80
2019-02-05T13:55:49.818Z,11.40
2019-02-05T13:58:21.289Z,11.10
2019-02-05T14:00:53.720Z,10.70
2019-02-05T14:03:24.351Z,10.10
2019-02-05T14:05:54.830Z,9.80
2019-02-05T14:08:25.600Z,9.50
2019-02-05T14:10:56.239Z,9.30
2019-02-05T14:13:26.752Z,9.20
2019-02-05T14:15:57.180Z,8.80
2019-02-05T14:18:27.741Z,8.70
2019-02-05T14:20:58.230Z,8.60
2019-02-05T14:23:30.962Z,8.50
2019-02-05T14:26:01.452Z,8.40
2019-02-05T14:28:32.088Z,8.30
2019-02-05T14:31:02.644Z,8.30
2019-02-05T14:33:33.224Z,8.10
2019-02-05T14:36:03.755Z,8.00
2019-02-05T14:38:34.217Z,7.90
2019-02-05T14:41:05.154Z,7.90
2019-02-05T14:43:35.689Z,7.80
2019-02-05T14:46:06.726Z,7.80
2019-02-05T14:48:37.186Z,7.50
2019-02-05T14:51:07.739Z,7.20
2019-02-05T14:53:38.199Z,7.10
2019-02-05T14:56:09.037Z,7.10
2019-02-05T14:58:39.482Z,7.00
2019-02-05T15:01:10.074Z,6.90
2019-02-05T15:03:40.606Z,6.90
2019-02-05T15:06:11.852Z,6.80
2019-02-05T15:08:45.128Z,6.60
2019-02-05T15:11:18.819Z,6.30
2019-02-05T15:13:49.293Z,6.10
2019-02-05T15:16:21.686Z,6.00
2019-02-05T15:18:55.055Z,5.90
2019-02-05T15:21:31.732Z,5.90
2019-02-05T15:24:03.067Z,5.70
2019-02-05T15:26:33.552Z,5.60
2019-02-05T15:29:04.114Z,5.40
2019-02-05T15:31:34.672Z,5.30
2019-02-05T15:34:05.505Z,5.10
2019-02-05T15:36:36.060Z,5.10
2019-02-05T15:39:11.495Z,5.00
2019-02-05T15:41:41.956Z,4.80
2019-02-05T15:44:12.527Z,4.80
2019-02-05T15:46:43.058Z,4.70
2019-02-05T15:49:13.541Z,4.60
2019-02-05T15:51:44.074Z,4.50
2019-02-05T15:54:14.646Z,4.40
2019-02-05T15:56:46.745Z,4.30
2019-02-05T15:59:17.328Z,4.20
2019-02-05T16:01:47.870Z,4.20
2019-02-05T16:04:18.364Z,4.00
2019-02-05T16:06:48.829Z,4.00
2019-02-05T16:09:19.398Z,3.90
2019-02-05T16:11:52.714Z,3.80
2019-02-05T16:14:23.172Z,3.70
2019-02-05T16:16:53.655Z,3.70
2019-02-05T16:19:24.160Z,3.70
2019-02-05T16:21:54.732Z,3.60
2019-02-05T16:24:25.190Z,3.60
2019-02-05T16:26:55.683Z,3.60
2019-02-05T16:29:26.156Z,3.50
2019-02-05T16:31:56.662Z,3.40
2019-02-05T16:34:27.130Z,3.40
2019-02-05T16:36:57.619Z,3.30
2019-02-05T16:39:28.450Z,3.20
2019-02-05T16:41:58.946Z,3.00
2019-02-05T16:44:29.447Z,2.90
2019-02-05T16:46:59.902Z,2.80
2019-02-05T16:49:30.394Z,2.70
2019-02-05T16:52:01.038Z,2.60
2019-02-05T16:54:31.603Z,2.60
2019-02-05T16:57:03.577Z,2.50
2019-02-05T16:59:34.371Z,2.50
2019-02-05T17:02:05.373Z,2.40
2019-02-05T17:04:35.874Z,2.30
2019-02-05T17:07:06.735Z,2.20
2019-02-05T17:09:37.237Z,2.20
2019-02-05T17:12:07.837Z,2.20
2019-02-05T17:14:40.804Z,2.20
2019-02-05T17:17:11.315Z,2.20
2019-02-05T17:19:43.400Z,2.20
2019-02-05T17:22:14.579Z,2.10
2019-02-05T17:24:47.671Z,2.20
2019-02-05T17:27:18.816Z,2.10
2019-02-05T17:29:50.184Z,2.00
2019-02-05T17:32:21.090Z,2.00
2019-02-05T17:34:51.581Z,2.00
2019-02-05T17:37:22.050Z,1.90
2019-02-05T17:39:53.116Z,1.90
2019-02-05T17:42:24.234Z,1.90
2019-02-05T17:44:54.753Z,1.80
2019-02-05T17:47:25.236Z,1.70
2019-02-05T17:49:55.741Z,1.70
2019-02-05T17:52:26.240Z,1.50
2019-02-05T17:54:58.232Z,1.50
2019-02-05T17:57:29.395Z,1.40
2019-02-05T17:59:59.858Z,1.40
2019-02-05T18:02:30.354Z,1.30
2019-02-05T18:05:00.820Z,1.30
2019-02-05T18:07:31.303Z,1.30
2019-02-05T18:10:01.778Z,1.30
2019-02-05T18:12:32.741Z,1.20
2019-02-05T18:15:05.887Z,1.20
2019-02-05T18:17:36.348Z,1.20
2019-02-05T18:20:09.742Z,1.20
2019-02-05T18:22:40.212Z,1.30
2019-02-05T18:25:17.683Z,1.20
2019-02-05T18:27:48.348Z,1.10
2019-02-05T18:30:32.386Z,1.10
2019-02-05T18:33:05.531Z,1.00
2019-02-05T18:35:36.645Z,1.00
2019-02-05T18:38:15.085Z,0.90
2019-02-05T18:40:45.653Z,0.80
2019-02-05T18:43:16.683Z,0.70
2019-02-05T18:45:47.136Z,0.60
2019-02-05T18:48:17.693Z,0.60
2019-02-05T18:50:48.234Z,0.60
2019-02-05T18:53:20.937Z,0.70
2019-02-05T18:55:51.430Z,0.70
2019-02-05T18:58:26.538Z,0.70
2019-02-05T19:00:57.383Z,0.70
2019-02-05T19:03:27.892Z,0.60
2019-02-05T19:05:58.354Z,0.50
2019-02-05T19:08:28.875Z,0.40
2019-02-05T19:10:59.384Z,0.30
2019-02-05T19:13:30.365Z,0.20
2019-02-05T19:16:00.856Z,0.20
2019-02-05T19:18:31.392Z,0.20
2019-02-05T19:21:01.896Z,0.20
2019-02-05T19:23:32.359Z,0.10
2019-02-05T19:26:04.488Z,0.10
2019-02-05T19:28:35.048Z,0.00
2019-02-05T19:31:19.308Z,-0.10
2019-02-05T19:33:49.762Z,-0.20
2019-02-05T19:36:21.832Z,-0.20
2019-02-05T19:38:52.311Z,-0.30
2019-02-05T19:41:23.764Z,-0.20
2019-02-05T19:43:54.261Z,-0.20
2019-02-05T19:46:45.085Z,-0.20
2019-02-05T19:49:22.705Z,-0.30
2019-02-05T19:51:53.173Z,-0.40
2019-02-05T19:54:24.027Z,-0.40
2019-02-05T19:56:54.597Z,-0.50
2019-02-05T19:59:27.740Z,-0.50
2019-02-05T20:01:58.303Z,-0.50
2019-02-05T20:04:28.842Z,-0.60
2019-02-05T20:07:00.315Z,-0.60
2019-02-05T20:09:30.804Z,-0.60
2019-02-05T20:12:01.549Z,-0.60
2019-02-05T20:14:32.006Z,-0.60
2019-02-05T20:17:02.667Z,-0.70
2019-02-05T20:19:33.270Z,-0.80
2019-02-05T20:22:03.767Z,-0.80
2019-02-05T20:24:34.308Z,-0.90
2019-02-05T20:27:05.273Z,-0.90
2019-02-05T20:29:35.804Z,-1.00
2019-02-05T20:32:06.885Z,-0.90
2019-02-05T20:34:37.367Z,-1.00
2019-02-05T20:37:07.936Z,-1.10
2019-02-05T20:39:39.961Z,-1.20
2019-02-05T20:42:10.435Z,-1.20
2019-02-05T20:44:42.501Z,-1.20
2019-02-05T20:47:13.010Z,-1.20
2019-02-05T20:49:43.521Z,-1.20
2019-02-05T20:52:13.996Z,-1.30
2019-02-05T20:54:44.501Z,-1.40
2019-02-05T20:57:15.000Z,-1.40
2019-02-05T20:59:46.150Z,-1.50
2019-02-05T21:02:16.829Z,-1.60
2019-02-05T21:04:48.696Z,-1.60
2019-02-05T21:07:20.919Z,-1.60
2019-02-05T21:09:51.431Z,-1.60
2019-02-05T21:12:21.891Z,-1.60
2019-02-05T21:14:52.531Z,-1.60
2019-02-05T21:17:22.995Z,-1.60
2019-02-05T21:19:53.523Z,-1.60
2019-02-05T21:22:23.988Z,-1.60
2019-02-05T21:24:54.485Z,-1.70
2019-02-05T21:27:24.961Z,-1.70
2019-02-05T21:29:55.730Z,-1.80
2019-02-05T21:32:29.032Z,-1.80
2019-02-05T21:35:01.812Z,-1.80
2019-02-05T21:37:32.502Z,-1.90
2019-02-05T21:40:03.150Z,-1.90
2019-02-05T21:42:37.278Z,-1.90
2019-02-05T21:45:12.615Z,-1.90
2019-02-05T21:47:44.670Z,-2.00
2019-02-05T21:50:19.594Z,-1.90
2019-02-05T21:52:50.413Z,-2.00
2019-02-05T21:55:23.600Z,-2.00
2019-02-05T21:57:55.731Z,-2.10
2019-02-05T22:00:34.562Z,-2.10
2019-02-05T22:03:07.041Z,-2.10
2019-02-05T22:05:39.387Z,-2.20
2019-02-05T22:08:10.721Z,-2.20
2019-02-05T22:10:41.325Z,-2.30
2019-02-05T22:13:11.843Z,-2.30
2019-02-05T22:15:42.312Z,-2.30
2019-02-05T22:18:12.973Z,-2.30
2019-02-05T22:20:43.445Z,-2.30
2019-02-05T22:23:14.336Z,-2.30
2019-02-05T22:25:44.868Z,-2.30
2019-02-05T22:28:15.345Z,-2.40
2019-02-05T22:30:46.221Z,-2.40
2019-02-05T22:33:16.694Z,-2.50
2019-02-05T22:35:47.194Z,-2.50
2019-02-05T22:38:17.663Z,-2.50
2019-02-05T22:40:49.756Z,-2.60
2019-02-05T22:43:22.048Z,-2.70
2019-02-05T22:45:52.526Z,-2.70
2019-02-05T22:48:23.022Z,-2.80
2019-02-05T22:50:53.498Z,-2.80
2019-02-05T22:53:24.578Z,-2.80
2019-02-05T22:55:55.035Z,-2.80
2019-02-05T22:58:25.714Z,-2.70
2019-02-05T23:01:12.979Z,-2.70
2019-02-05T23:03:48.020Z,-2.80
2019-02-05T23:06:35.759Z,-2.80
2019-02-05T23:09:29.052Z,-2.80
2019-02-05T23:12:04.248Z,-2.90
2019-02-05T23:14:34.749Z,-2.90
2019-02-05T23:17:05.763Z,-2.90
2019-02-05T23:19:36.339Z,-2.90
2019-02-05T23:22:07.146Z,-2.90
2019-02-05T23:24:38.550Z,-2.90
2019-02-05T23:27:09.023Z,-2.90
2019-02-05T23:29:39.597Z,-3.00
2019-02-05T23:32:10.138Z,-3.00
2019-02-05T23:34:40.710Z,-3.00
2019-02-05T23:37:11.194Z,-3.10
2019-02-05T23:39:41.767Z,-3.10
2019-02-05T23:42:13.047Z,-3.10
2019-02-05T23:44:44.450Z,-3.20
2019-02-05T23:47:15.420Z,-3.10
2019-02-05T23:49:45.918Z,-3.10
2019-02-05T23:52:16.456Z,-3.20
2019-02-05T23:54:46.967Z,-3.30
2019-02-05T23:57:17.467Z,-3.30
2019-02-05T23:59:47.966Z,-3.30
